createdAt,value
2018-07-19T00:00:24.464Z,5.23
2018-07-19T00:02:53.148Z,5.67
2018-07-19T00:05:21.833Z,5.23
2018-07-19T00:07:50.518Z,5.37
2018-07-19T00:10:19.202Z,5.03
2018-07-19T00:12:47.886Z,5.50
2018-07-19T00:15:16.571Z,5.47
2018-07-19T00:17:45.255Z,5.43
2018-07-19T00:20:14.061Z,5.83
2018-07-19T00:22:42.745Z,5.50
2018-07-19T00:25:11.429Z,5.53
2018-07-19T00:27:40.115Z,5.03
2018-07-19T00:30:08.798Z,6.10
2018-07-19T00:32:37.483Z,5.30
2018-07-19T00:35:06.167Z,5.13
2018-07-19T00:37:34.853Z,5.13
2018-07-19T00:40:03.537Z,5.90
2018-07-19T00:42:32.222Z,5.47
2018-07-19T01:09:39.712Z,5.27
2018-07-19T01:12:08.397Z,5.73
2018-07-19T01:14:37.087Z,5.33
2018-07-19T01:17:06.006Z,5.33
2018-07-19T01:19:34.694Z,6.00
2018-07-19T01:22:03.375Z,5.53
2018-07-19T01:24:32.060Z,4.40
2018-07-19T01:27:00.744Z,5.33
2018-07-19T01:29:29.428Z,5.53
2018-07-19T01:31:58.113Z,5.53
2018-07-19T01:34:26.797Z,5.50
2018-07-19T01:36:55.482Z,5.23
2018-07-19T01:39:24.166Z,5.23
2018-07-19T01:42:32.933Z,5.30
2018-07-19T01:45:01.618Z,5.30
2018-07-19T01:47:30.422Z,5.77
2018-07-19T01:49:59.108Z,5.43
2018-07-19T01:52:27.792Z,5.67
2018-07-19T01:54:56.476Z,5.53
2018-07-19T01:57:25.160Z,5.33
2018-07-19T01:59:53.845Z,5.80
2018-07-19T02:02:22.531Z,4.90
2018-07-19T02:04:51.215Z,5.07
2018-07-19T02:07:19.898Z,5.83
2018-07-19T02:09:48.585Z,5.93
2018-07-19T02:12:17.268Z,6.17
2018-07-19T02:14:45.953Z,5.57
2018-07-19T02:17:14.638Z,6.30
2018-07-19T02:19:43.322Z,4.67
2018-07-19T02:22:12.006Z,5.53
2018-07-19T02:24:40.691Z,5.40
2018-07-19T02:27:09.376Z,5.70
2018-07-19T02:29:38.061Z,5.80
2018-07-19T02:32:06.744Z,5.40
2018-07-19T02:34:35.430Z,6.00
2018-07-19T02:37:04.116Z,5.33
2018-07-19T02:39:32.798Z,5.37
2018-07-19T02:42:01.484Z,5.80
2018-07-19T02:44:30.168Z,5.60
2018-07-19T02:46:58.852Z,5.77
2018-07-19T02:49:27.538Z,5.80
2018-07-19T02:51:56.222Z,5.80
2018-07-19T02:54:24.906Z,5.37
2018-07-19T02:56:53.592Z,5.83
2018-07-19T02:59:22.276Z,6.50
2018-07-19T03:01:51.080Z,5.70
2018-07-19T03:04:19.764Z,6.10
2018-07-19T03:06:48.450Z,5.13
2018-07-19T03:09:17.135Z,5.97
2018-07-19T03:11:45.819Z,6.63
2018-07-19T03:14:14.502Z,6.40
2018-07-19T03:16:43.192Z,6.20
2018-07-19T03:19:11.872Z,5.67
2018-07-19T03:21:40.558Z,5.97
2018-07-19T03:24:09.242Z,6.50
2018-07-19T03:26:37.927Z,5.90
2018-07-19T03:29:06.611Z,6.30
2018-07-19T03:31:35.296Z,6.70
2018-07-19T03:34:03.980Z,6.10
2018-07-19T03:36:32.665Z,6.37
2018-07-19T03:39:01.350Z,5.93
2018-07-19T03:41:30.040Z,6.33
2018-07-19T03:43:58.718Z,6.67
2018-07-19T03:46:27.403Z,6.50
2018-07-19T03:48:56.087Z,6.03
2018-07-19T03:51:24.772Z,6.30
2018-07-19T03:53:53.456Z,6.97
2018-07-19T03:56:22.142Z,6.60
2018-07-19T03:58:50.828Z,7.00
2018-07-19T04:01:19.632Z,6.73
2018-07-19T04:03:48.316Z,6.17
2018-07-19T04:06:16.999Z,6.83
2018-07-19T04:08:45.684Z,6.47
2018-07-19T04:11:14.489Z,6.70
2018-07-19T04:13:43.294Z,6.20
2018-07-19T04:16:11.979Z,6.53
2018-07-19T04:18:40.663Z,6.00
2018-07-19T04:21:09.347Z,5.80
2018-07-19T04:23:38.032Z,7.20
2018-07-19T04:26:06.717Z,7.10
2018-07-19T04:28:35.401Z,6.20
2018-07-19T04:31:04.205Z,6.10
2018-07-19T04:33:32.889Z,6.33
2018-07-19T04:36:01.574Z,6.37
2018-07-19T04:38:30.258Z,6.77
2018-07-19T04:40:58.944Z,7.00
2018-07-19T04:43:27.629Z,6.90
2018-07-19T04:45:56.313Z,5.97
2018-07-19T04:48:24.999Z,7.27
2018-07-19T04:50:53.685Z,6.50
2018-07-19T04:53:22.367Z,5.70
2018-07-19T04:55:51.051Z,6.03
2018-07-19T04:58:19.735Z,7.03
2018-07-19T05:00:48.423Z,6.50
2018-07-19T05:03:17.106Z,6.97
2018-07-19T05:05:45.789Z,6.70
2018-07-19T05:08:14.474Z,6.50
2018-07-19T05:10:43.159Z,6.30
2018-07-19T05:13:11.843Z,5.53
2018-07-19T05:15:40.528Z,5.80
2018-07-19T05:18:09.332Z,6.20
2018-07-19T05:20:38.018Z,6.30
2018-07-19T05:23:06.956Z,6.30
2018-07-19T05:25:35.626Z,6.13
2018-07-19T05:28:04.316Z,6.30
2018-07-19T05:30:32.995Z,6.70
2018-07-19T05:33:01.685Z,6.33
2018-07-19T05:35:30.366Z,6.95
2018-07-19T05:37:59.052Z,6.35
2018-07-19T05:40:27.737Z,5.90
2018-07-19T05:42:56.420Z,6.22
2018-07-19T05:45:25.104Z,5.58
2018-07-19T05:47:53.790Z,6.47
2018-07-19T05:50:22.474Z,5.30
2018-07-19T05:52:51.159Z,5.03
2018-07-19T05:55:19.843Z,4.72
2018-07-19T05:57:48.528Z,4.40
2018-07-19T06:00:17.212Z,4.25
2018-07-19T06:02:45.896Z,5.03
2018-07-19T06:05:14.580Z,4.63
2018-07-19T06:07:43.505Z,4.40
2018-07-19T06:10:12.190Z,4.70
2018-07-19T06:12:40.876Z,4.40
2018-07-19T06:15:09.561Z,4.67
2018-07-19T06:17:38.245Z,4.75
2018-07-19T06:20:08.369Z,4.60
2018-07-19T06:22:37.053Z,4.40
2018-07-19T06:25:05.977Z,4.50
2018-07-19T06:27:34.663Z,4.60
2018-07-19T06:30:03.467Z,3.80
2018-07-19T06:32:34.127Z,4.47
2018-07-19T06:35:02.877Z,4.78
2018-07-19T06:37:31.562Z,4.60
2018-07-19T06:40:00.245Z,4.50
2018-07-19T06:42:28.932Z,4.50
2018-07-19T06:44:57.615Z,4.80
2018-07-19T06:47:26.300Z,4.30
2018-07-19T06:49:54.985Z,3.72
2018-07-19T06:52:23.672Z,4.33
2018-07-19T06:54:52.352Z,4.70
2018-07-19T06:57:21.048Z,4.28
2018-07-19T06:59:49.723Z,4.85
2018-07-19T07:02:18.407Z,4.80
2018-07-19T07:04:47.092Z,5.00
2018-07-19T07:07:15.780Z,4.80
2018-07-19T07:09:44.461Z,4.40
2018-07-19T07:12:13.144Z,4.30
2018-07-19T07:14:41.831Z,4.25
2018-07-19T07:17:10.517Z,4.45
2018-07-19T07:19:39.201Z,4.45
2018-07-19T07:22:07.883Z,4.00
2018-07-19T07:24:36.568Z,4.47
2018-07-19T07:27:05.372Z,3.90
2018-07-19T07:29:34.057Z,3.70
2018-07-19T07:32:02.741Z,4.05
2018-07-19T07:34:31.548Z,3.95
2018-07-19T07:37:00.231Z,3.80
2018-07-19T07:39:28.916Z,3.83
2018-07-19T07:41:57.601Z,3.75
2018-07-19T07:44:26.285Z,3.50
2018-07-19T07:46:54.971Z,3.30
2018-07-19T07:49:23.655Z,3.70
2018-07-19T07:51:52.340Z,3.45
2018-07-19T07:54:21.145Z,3.52
2018-07-19T07:56:49.829Z,4.10
2018-07-19T07:59:18.525Z,3.75
2018-07-19T08:01:47.198Z,3.40
2018-07-19T08:04:15.882Z,3.45
2018-07-19T08:06:44.567Z,4.08
2018-07-19T08:09:13.251Z,3.27
2018-07-19T08:11:41.936Z,3.60
2018-07-19T08:14:10.624Z,3.10
2018-07-19T08:16:39.306Z,3.55
2018-07-19T08:19:07.990Z,3.00
2018-07-19T08:21:36.708Z,3.20
2018-07-19T08:24:05.359Z,3.30
2018-07-19T08:26:34.045Z,3.37
2018-07-19T08:29:02.760Z,3.17
2018-07-19T08:31:31.416Z,3.13
2018-07-19T08:34:00.217Z,3.50
2018-07-19T08:36:28.902Z,3.40
2018-07-19T08:38:57.587Z,3.40
2018-07-19T08:41:26.271Z,3.50
2018-07-19T08:43:54.969Z,3.27
2018-07-19T08:46:23.641Z,3.40
2018-07-19T08:48:52.325Z,3.30
2018-07-19T08:51:21.012Z,3.60
2018-07-19T08:53:49.696Z,3.30
2018-07-19T08:56:18.383Z,3.67
2018-07-19T08:58:47.064Z,3.08
2018-07-19T09:01:15.748Z,3.20
2018-07-19T09:03:44.432Z,3.33
2018-07-19T09:06:13.117Z,3.03
2018-07-19T09:08:41.827Z,3.12
2018-07-19T09:11:10.607Z,3.17
2018-07-19T09:13:39.292Z,3.67
2018-07-19T09:16:07.976Z,3.53
2018-07-19T09:18:36.664Z,3.37
2018-07-19T09:21:05.349Z,3.45
2018-07-19T09:23:34.031Z,3.62
2018-07-19T09:26:02.715Z,3.43
2018-07-19T09:28:31.398Z,3.20
2018-07-19T09:31:00.084Z,3.27
2018-07-19T09:33:28.768Z,3.27
2018-07-19T09:35:57.452Z,3.47
2018-07-19T09:38:26.219Z,3.00
2018-07-19T09:40:55.062Z,3.13
2018-07-19T09:43:23.747Z,3.00
2018-07-19T09:45:52.431Z,3.27
2018-07-19T09:48:21.115Z,3.50
2018-07-19T09:50:49.920Z,3.70
2018-07-19T09:53:18.604Z,3.00
2018-07-19T09:55:47.294Z,3.00
2018-07-19T09:58:15.974Z,3.00
2018-07-19T10:00:50.058Z,3.10
2018-07-19T10:03:18.743Z,2.50
2018-07-19T10:05:47.471Z,3.20
2018-07-19T10:08:16.113Z,3.43
2018-07-19T10:10:44.797Z,3.13
2018-07-19T10:13:13.481Z,3.20
2018-07-19T10:15:42.167Z,2.63
2018-07-19T10:18:10.853Z,3.27
2018-07-19T10:20:42.328Z,2.90
2018-07-19T10:23:10.980Z,3.00
2018-07-19T10:25:39.665Z,3.23
2018-07-19T10:28:08.353Z,2.73
2018-07-19T10:30:37.156Z,3.50
2018-07-19T10:33:05.839Z,2.97
2018-07-19T10:35:34.526Z,2.50
2018-07-19T10:38:03.210Z,3.50
2018-07-19T10:40:31.921Z,3.40
2018-07-19T10:43:00.587Z,3.00
2018-07-19T10:45:29.262Z,2.90
2018-07-19T10:47:57.948Z,2.92
2018-07-19T10:50:26.633Z,2.92
2018-07-19T10:52:55.319Z,2.98
2018-07-19T10:55:24.000Z,2.87
2018-07-19T10:57:52.685Z,2.80
2018-07-19T11:00:21.369Z,2.98
2018-07-19T11:02:50.108Z,3.00
2018-07-19T11:05:18.738Z,3.05
2018-07-19T11:07:47.424Z,2.90
2018-07-19T11:10:16.108Z,3.10
2018-07-19T11:12:44.792Z,3.00
2018-07-19T11:15:13.476Z,2.90
2018-07-19T11:17:42.161Z,3.30
2018-07-19T11:20:10.846Z,3.10
2018-07-19T11:22:39.556Z,3.37
2018-07-19T11:25:08.215Z,3.03
2018-07-19T11:27:36.902Z,2.95
2018-07-19T11:30:05.586Z,3.30
2018-07-19T11:32:34.268Z,3.60
2018-07-19T11:35:02.953Z,2.90
2018-07-19T11:37:31.641Z,2.95
2018-07-19T11:40:00.322Z,3.77
2018-07-19T11:42:29.007Z,2.90
2018-07-19T11:45:04.773Z,3.12
2018-07-19T11:47:33.576Z,3.00
2018-07-19T11:50:02.262Z,2.80
2018-07-19T11:52:30.946Z,3.00
2018-07-19T11:54:59.631Z,3.20
2018-07-19T11:57:28.315Z,3.62
2018-07-19T11:59:57.000Z,3.00
2018-07-19T12:02:25.685Z,3.50
2018-07-19T12:04:54.369Z,3.15
2018-07-19T12:07:23.053Z,3.00
2018-07-19T12:09:51.859Z,3.47
2018-07-19T12:12:20.543Z,2.90
2018-07-19T12:14:49.227Z,2.77
2018-07-19T12:17:17.912Z,2.98
2018-07-19T12:19:46.597Z,3.00
2018-07-19T12:22:15.280Z,3.08
2018-07-19T12:24:43.968Z,2.60
2018-07-19T12:27:12.650Z,2.85
2018-07-19T12:29:41.335Z,3.20
2018-07-19T12:32:10.380Z,3.12
2018-07-19T12:34:39.067Z,3.22
2018-07-19T12:37:07.749Z,3.00
2018-07-19T12:39:36.435Z,3.17
2018-07-19T12:42:05.118Z,3.00
2018-07-19T12:44:33.802Z,3.30
2018-07-19T12:47:02.487Z,3.13
2018-07-19T12:59:22.670Z,3.33
2018-07-19T13:01:51.363Z,3.58
2018-07-19T13:04:20.043Z,3.33
2018-07-19T13:06:48.844Z,3.47
2018-07-19T13:09:17.529Z,3.60
2018-07-19T13:11:46.214Z,3.10
2018-07-19T13:14:14.898Z,3.30
2018-07-19T13:16:43.583Z,3.80
2018-07-19T13:19:12.267Z,3.70
2018-07-19T13:21:40.952Z,3.58
2018-07-19T13:24:09.643Z,3.30
2018-07-19T13:26:38.320Z,3.10
2018-07-19T13:29:07.006Z,3.10
2018-07-19T13:31:35.810Z,2.90
2018-07-19T13:34:04.495Z,3.57
2018-07-19T13:36:33.277Z,3.30
2018-07-19T13:39:01.865Z,3.47
2018-07-19T13:41:30.548Z,3.57
2018-07-19T13:43:59.233Z,3.37
2018-07-19T13:46:29.494Z,2.70
2018-07-19T13:48:58.161Z,3.00
2018-07-19T13:51:26.846Z,2.90
2018-07-19T13:54:20.732Z,2.80
2018-07-19T13:56:49.422Z,3.00
2018-07-19T13:59:18.348Z,2.90
2018-07-19T14:01:48.467Z,3.20
2018-07-19T14:04:17.518Z,3.00
2018-07-19T14:06:46.196Z,3.10
2018-07-19T14:09:15.842Z,2.97
2018-07-19T14:11:44.524Z,2.90
2018-07-19T14:14:13.210Z,2.98
2018-07-19T14:16:41.896Z,3.00
2018-07-19T14:19:10.579Z,3.00
2018-07-19T14:21:39.269Z,2.80
2018-07-19T14:24:08.067Z,3.40
2018-07-19T14:26:36.753Z,3.13
2018-07-19T14:29:05.438Z,3.10
2018-07-19T14:31:34.242Z,2.83
2018-07-19T14:34:02.926Z,3.00
2018-07-19T14:36:32.091Z,2.98
2018-07-19T14:39:00.775Z,3.08
2018-07-19T14:41:29.460Z,3.27
2018-07-19T14:43:58.145Z,2.95
2018-07-19T14:46:26.829Z,3.30
2018-07-19T14:48:55.517Z,3.10
2018-07-19T14:51:24.198Z,3.40
2018-07-19T14:53:52.460Z,3.30
2018-07-19T14:56:21.088Z,2.80
2018-07-19T14:58:49.773Z,2.83
2018-07-19T15:01:18.457Z,3.10
2018-07-19T15:03:47.142Z,2.90
2018-07-19T15:06:15.946Z,3.00
2018-07-19T15:08:44.634Z,2.90
2018-07-19T15:11:13.316Z,3.15
2018-07-19T15:13:42.054Z,3.20
2018-07-19T15:16:10.684Z,3.20
2018-07-19T15:18:39.369Z,3.27
2018-07-19T15:21:08.054Z,2.87
2018-07-19T15:23:36.738Z,2.90
2018-07-19T15:26:05.423Z,3.40
2018-07-19T15:28:34.109Z,3.02
2018-07-19T15:31:02.792Z,3.02
2018-07-19T15:33:31.600Z,3.00
2018-07-19T15:36:00.282Z,2.60
2018-07-19T15:38:29.086Z,2.90
2018-07-19T15:40:57.769Z,2.60
2018-07-19T15:43:26.455Z,3.25
2018-07-19T15:45:55.139Z,2.90
2018-07-19T15:48:23.824Z,2.70
2018-07-19T15:50:52.629Z,3.20
2018-07-19T17:14:41.026Z,2.47
2018-07-19T17:17:10.104Z,2.30
2018-07-19T17:19:38.879Z,2.70
2018-07-19T17:22:07.919Z,2.60
2018-07-19T17:24:36.606Z,2.40
2018-07-19T17:27:18.730Z,2.90
2018-07-19T17:29:47.414Z,2.50
2018-07-19T17:32:16.096Z,2.72
2018-07-19T17:34:44.784Z,3.30
2018-07-19T17:37:13.466Z,2.77
2018-07-19T17:39:42.152Z,2.60
2018-07-19T17:42:10.956Z,2.43
2018-07-19T17:44:39.640Z,3.27
2018-07-19T17:47:08.325Z,2.83
2018-07-19T17:49:37.010Z,3.90
2018-07-19T17:52:06.175Z,2.70
2018-07-19T17:54:34.877Z,2.90
2018-07-19T17:57:03.547Z,2.43
2018-07-19T17:59:32.277Z,2.67
2018-07-19T18:02:00.913Z,2.33
2018-07-19T18:04:29.597Z,3.30
2018-07-19T18:06:58.281Z,2.55
2018-07-19T18:09:26.968Z,2.50
2018-07-19T18:11:55.651Z,2.67
2018-07-19T18:14:24.338Z,2.67
2018-07-19T18:16:53.022Z,2.60
2018-07-19T18:19:21.705Z,2.40
2018-07-19T18:21:50.389Z,2.90
2018-07-19T18:24:19.074Z,2.65
2018-07-19T18:26:47.758Z,2.35
2018-07-19T18:29:16.443Z,2.73
2018-07-19T18:31:45.129Z,2.80
2018-07-19T18:34:13.812Z,2.70
2018-07-19T18:36:42.498Z,2.75
2018-07-19T18:39:12.382Z,2.90
2018-07-19T18:41:41.426Z,3.00
2018-07-19T18:44:10.111Z,2.90
2018-07-19T18:46:38.795Z,3.05
2018-07-19T18:49:07.482Z,2.70
2018-07-19T18:51:36.165Z,2.90
2018-07-19T18:54:04.851Z,2.80
2018-07-19T18:56:34.133Z,2.90
2018-07-19T18:59:02.820Z,2.70
2018-07-19T19:01:31.503Z,2.72
2018-07-19T19:04:00.212Z,2.80
2018-07-19T19:06:28.932Z,3.47
2018-07-19T19:08:57.556Z,2.70
2018-07-19T19:11:26.242Z,2.80
2018-07-19T19:13:54.929Z,2.92
2018-07-19T19:16:23.611Z,2.98
2018-07-19T19:18:52.295Z,3.15
2018-07-19T19:21:20.980Z,3.02
2018-07-19T19:23:49.665Z,3.12
2018-07-19T19:26:18.349Z,3.40
2018-07-19T19:28:47.034Z,2.83
2018-07-19T19:31:15.718Z,2.72
2018-07-19T19:33:44.403Z,2.85
2018-07-19T19:36:13.087Z,3.37
2018-07-19T19:38:41.775Z,3.17
2018-07-19T19:41:10.577Z,3.10
2018-07-19T19:43:39.261Z,2.95
2018-07-19T19:46:07.949Z,3.20
2018-07-19T19:48:37.230Z,3.30
2018-07-19T19:51:07.355Z,3.50
2018-07-19T19:53:36.413Z,3.40
2018-07-19T19:56:05.205Z,3.30
2018-07-19T19:58:34.012Z,3.30
2018-07-19T20:01:02.694Z,3.72
2018-07-19T20:03:37.738Z,3.52
2018-07-19T20:06:06.665Z,3.03
2018-07-19T20:08:35.348Z,3.00
2018-07-19T20:11:04.032Z,3.40
2018-07-19T20:13:32.716Z,3.17
2018-07-19T20:16:01.403Z,3.80
2018-07-19T20:18:30.086Z,3.60
2018-07-19T20:20:58.770Z,3.60
2018-07-19T20:23:27.455Z,3.50
2018-07-19T20:25:56.140Z,3.47
2018-07-19T20:28:24.825Z,3.90
2018-07-19T20:30:53.509Z,3.60
2018-07-19T20:33:22.193Z,3.40
2018-07-19T20:35:50.878Z,3.85
2018-07-19T20:38:19.563Z,3.70
2018-07-19T20:40:48.247Z,3.70
2018-07-19T20:43:16.943Z,4.05
2018-07-19T20:45:45.617Z,3.77
2018-07-19T20:48:14.301Z,3.90
2018-07-19T20:50:42.986Z,4.30
2018-07-19T20:53:11.670Z,4.67
2018-07-19T20:55:40.359Z,4.73
2018-07-19T20:58:09.040Z,4.93
2018-07-19T21:00:37.725Z,4.70
2018-07-19T21:03:06.410Z,5.03
2018-07-19T21:05:35.095Z,4.23
2018-07-19T21:08:03.778Z,4.90
2018-07-19T21:10:32.464Z,4.07
2018-07-19T21:13:01.151Z,4.67
2018-07-19T21:15:29.832Z,5.60
2018-07-19T21:17:58.093Z,5.10
2018-07-19T21:20:26.722Z,4.87
2018-07-19T21:22:55.406Z,4.60
2018-07-19T21:25:24.091Z,5.03
2018-07-19T21:27:52.775Z,4.47
2018-07-19T21:30:21.460Z,4.60
2018-07-19T21:32:50.145Z,5.60
2018-07-19T21:35:18.829Z,4.50
2018-07-19T21:37:47.516Z,4.57
2018-07-19T21:40:16.202Z,4.60
2018-07-19T21:42:44.884Z,4.67
2018-07-19T21:45:13.568Z,4.33
2018-07-19T21:47:42.253Z,4.60
2018-07-19T21:50:10.937Z,5.43
2018-07-19T21:52:39.625Z,6.23
2018-07-19T21:55:08.306Z,5.17
2018-07-19T21:57:36.991Z,4.70
2018-07-19T22:00:05.972Z,4.60
2018-07-19T22:02:34.600Z,5.40
2018-07-19T22:05:03.283Z,4.20
2018-07-19T22:07:31.969Z,4.47
2018-07-19T22:10:00.654Z,4.50
2018-07-19T22:32:11.977Z,4.40
2018-07-19T22:34:40.659Z,4.80
2018-07-19T22:37:09.344Z,4.75
2018-07-19T22:39:38.028Z,4.90
2018-07-19T22:42:06.713Z,4.65
2018-07-19T22:44:35.398Z,5.00
2018-07-19T22:47:04.082Z,4.70
2018-07-19T22:49:32.767Z,5.10
2018-07-19T22:52:01.451Z,4.67
2018-07-19T22:54:29.712Z,4.05
2018-07-19T22:56:58.341Z,4.50
2018-07-19T22:59:27.027Z,4.03
2018-07-19T23:01:55.710Z,4.70
2018-07-19T23:04:24.394Z,4.70
2018-07-19T23:06:53.079Z,4.57
2018-07-19T23:09:21.763Z,4.20
2018-07-19T23:11:50.448Z,4.35
2018-07-19T23:14:19.132Z,4.75
2018-07-19T23:16:47.817Z,4.35
2018-07-19T23:19:16.623Z,4.70
2018-07-19T23:21:45.306Z,4.50
2018-07-19T23:24:13.993Z,5.00
2018-07-19T23:26:42.676Z,4.87
2018-07-19T23:29:11.361Z,4.40
2018-07-19T23:31:40.046Z,4.10
2018-07-19T23:34:08.730Z,4.80
2018-07-19T23:36:40.655Z,4.73
2018-07-19T23:39:14.064Z,4.50
2018-07-19T23:41:47.863Z,4.50
2018-07-19T23:44:20.629Z,4.63
2018-07-19T23:46:53.873Z,4.40
2018-07-19T23:49:22.559Z,4.50
2018-07-19T23:51:51.244Z,4.97
2018-07-19T23:54:19.929Z,4.70
2018-07-19T23:56:48.612Z,4.40
2018-07-19T23:59:17.299Z,5.28
